Relevés horaires Chievres (Belgique)


Relevés horaires à Chievres - Samedi 07 Mai 2016
Heure UTC1 Température [°C] Vent [km/h] Hum. [%] Pres.4 [hPa] Visi. [Km] Nébu. [octa] Préc.5 [mm] Cond.
2m. Res. Ros. Dir.2 Vit. Moy. Raf.3
23:00 13.0 13.0 10.2 NNO 3.7 3.7 3.7 83 1009.2(0.2/3h) 20 -- -- --
22:00 13.6 13.6 10.3 NNO 1.9 1.9 3.7 80 1009.2(0.5/3h) 20 -- -- --
21:00 15.6 15.6 10.6 NNO 1.9 0.0 0.0 72 1009.1(0.5/3h) 20 -- -- --
20:00 17.8 17.8 10.4 NNO 1.9 1.9 1.9 62 1008.8(0.6/3h) 20 -- -- --
19:00 21.3 21.3 11.0 NNO 1.9 3.7 5.6 52 1008.5(0.1/3h) 20 -- -- --
18:00 22.7 22.7 10.2 SSO 3.7 0.0 0.0 45 1008.5(0.0/3h) 20 -- 0/0h
--
17:00 23.8 23.8 7.9 SO 5.6 5.6 9.3 36 1008.1(-0.7/3h) 20 -- -- --
16:00 22.6 22.6 9.1 SO 5.6 7.4 11.1 42 1008.2(-1.1/3h) 20 -- -- --
15:00 25.1 25.1 4.1 S 7.4 0.0 0.0 26 1008.3(-1.0/3h) 20 -- -- --
14:00 25.4 25.4 5.0 ESE 7.4 9.3 13.0 27 1008.8(-0.7/3h) 20 -- -- --
13:00 24.6 24.6 3.0 SSE 7.4 11.1 14.8 24 1009.3(-0.4/3h) 20 -- -- --
12:00 24.0 24.0 4.5 S 11.1 0.0 0.0 28 1009.6(-0.4/3h) 20 -- 0/0h
--
11:00 23.5 23.5 4.2 S 9.3 9.3 13.0 28 1009.7(-0.2/3h) 20 -- -- --
10:00 22.7 22.7 6.6 SSO 7.4 9.3 13.0 35 1009.8(0.1/3h) 20 -- -- --
09:00 21.7 21.7 7.1 S 7.4 0.0 0.0 39 1010.1(0.3/3h) 20 -- -- --
08:00 19.3 19.3 8.9 S 5.6 7.4 9.3 51 1010.1(0.5/3h) 20 -- -- --
07:00 17.1 17.1 8.6 SSE 5.6 7.4 11.1 57 1009.8(0.4/3h) 20 -- -- --
06:00 15.2 15.2 6.7 S 3.7 0.0 0.0 57 1009.8(0.3/3h) 20 -- 0/0h
--
05:00 12.6 12.6 6.4 NNO 1.9 3.7 5.6 66 1009.6(-0.2/3h) 20 -- -- --
04:00 11.3 11.3 5.4 SE 3.7 3.7 5.6 67 1009.6(-0.5/3h) 20 -- -- --
03:00 11.9 11.9 5.2 NNO 1.9 0.0 0.0 63 1009.6(-0.6/3h) 20 -- -- --
02:00 12.1 12.1 5.6 NNO 1.9 5.6 5.6 64 1009.8(-0.4/3h) 20 -- -- --
01:00 14.6 14.6 5.1 SSE 5.6 5.6 7.4 53 1010.1(-0.1/3h) 20 -- -- --
00:00 14.8 14.8 5.5 SE 3.7 0.0 0.0 54 1010.2(-0.1/3h) 20 -- 0/0h
--

1 Coordinated Universal Time. Actuellement il est 17:00 locale et 15:00 UTC.

2 Le vent souffle depuis la direction indiquée vers la direction oposée.

3 Les rafales max. sont disponible 40 min après l'heure du relevé.

4 Pour les stations d'altitude (plus de 600m) le géopotentiel du niveau le plus proche de la pression obligatoire est indiqué.

5 Les stations disposant d'un diffuseur peuvent indiquer "trace". Cela signifie que des précipitations ont touchés le sol mais que la quantité est inférieure à 0.1 mm.

Récapitulatif de la journée
Température [°C] Vent [km/h] Ensoleillement4 [h] Precipitations totale5 [mm] Pression [Hpa]
Min1 Max.2 Moy.3 Max. Min Max.
10.4 25.8 4 14.8 0 h 0 min 0 1008.1 1010.2

1 Température minimale relevée entre 18:00 UTC la veille et 18:00 UTC le jour donné.

2 Température maximale relevée entre 06:00 UTC le jour donné et 06:00 UTC le lendemain.

3 Vent moyen de la journée basé sur les relevés horaires.

4 Ensoleillement en heures relevé entre 06:00 UTC la veille et 06:00 UTC le jour donné.

5 Précipitations totales tombées entre 06:00 UTC la jour donné et 06:00 UTC le lendemain.

Graphiques horaires